Time;durP1;ratioP1;P1;durP2;ratioP2;P2;SDS_P1;SDS_P2;PMS_P1;PMS_P2;Temp;Humidity;BMP_temperature;BMP_pressure;BME280_temperature;BME280_humidity;BME280_pressure;Samples;Min_cycle;Max_cycle;Signal;HPM_P1;HPM_P2
2020/12/23 00:01:16;;;;;;;0.88;0.55;;;13.10;99.90;;;;;;5031827;28;20044;-81
2020/12/23 00:03:42;;;;;;;2.95;0.80;;;13.10;99.90;;;;;;5020032;28;20084;-82
2020/12/23 00:06:07;;;;;;;0.57;0.38;;;13.00;99.90;;;;;;5010918;28;20057;-83
2020/12/23 00:08:33;;;;;;;5.72;0.70;;;12.90;99.90;;;;;;5025924;28;20536;-83
2020/12/23 00:10:59;;;;;;;1.45;1.02;;;12.90;99.90;;;;;;5008663;28;20064;-82
2020/12/23 00:13:24;;;;;;;2.65;0.60;;;12.90;99.90;;;;;;5016536;28;20038;-82
2020/12/23 00:15:50;;;;;;;0.65;0.50;;;13.00;99.90;;;;;;5016351;28;20053;-83
2020/12/23 00:18:15;;;;;;;2.13;0.93;;;13.10;99.90;;;;;;5018077;28;20041;-81
2020/12/23 00:20:41;;;;;;;2.13;0.57;;;13.10;99.90;;;;;;5021896;28;20160;-83
2020/12/23 00:23:06;;;;;;;3.35;0.68;;;13.20;99.90;;;;;;4998381;28;20091;-84
2020/12/23 00:25:32;;;;;;;1.00;0.68;;;13.20;99.90;;;;;;5000958;28;20143;-84
2020/12/23 00:27:58;;;;;;;1.63;0.60;;;13.30;99.90;;;;;;5023299;28;20099;-82
2020/12/23 00:30:23;;;;;;;0.73;0.70;;;13.50;99.90;;;;;;5020048;28;20030;-82
2020/12/23 00:32:49;;;;;;;1.80;0.60;;;13.50;99.90;;;;;;5025809;28;20041;-82
2020/12/23 00:35:14;;;;;;;1.50;0.70;;;13.50;99.90;;;;;;5010418;28;20039;-82
2020/12/23 00:37:40;;;;;;;0.70;0.40;;;13.40;99.90;;;;;;5011294;28;20582;-82
2020/12/23 00:40:06;;;;;;;2.60;0.75;;;13.50;99.90;;;;;;5019154;28;20141;-82
2020/12/23 00:42:31;;;;;;;1.20;0.90;;;13.50;99.90;;;;;;5011912;28;20026;-84
2020/12/23 00:45:00;;;;;;;0.80;0.45;;;13.70;99.90;;;;;;5015362;28;20048;-82
2020/12/23 00:47:25;;;;;;;2.15;0.70;;;13.80;99.90;;;;;;5012026;28;20052;-82
2020/12/23 00:49:51;;;;;;;3.08;0.50;;;13.80;99.90;;;;;;5005135;28;20033;-82
2020/12/23 00:52:17;;;;;;;1.98;0.50;;;13.70;99.90;;;;;;5022329;28;20030;-83
2020/12/23 00:54:42;;;;;;;0.82;0.55;;;13.80;99.90;;;;;;5016586;28;20033;-83
2020/12/23 00:57:08;;;;;;;1.35;0.50;;;13.90;99.90;;;;;;5018859;28;20049;-83
2020/12/23 00:59:34;;;;;;;0.70;0.60;;;13.90;99.90;;;;;;5002652;28;20048;-83
2020/12/23 01:02:00;;;;;;;1.52;0.70;;;14.00;99.90;;;;;;5013719;28;20404;-83
2020/12/23 01:04:26;;;;;;;3.05;0.38;;;14.00;99.80;;;;;;5019359;28;20052;-83
2020/12/23 01:06:52;;;;;;;1.60;0.68;;;14.00;99.80;;;;;;5015717;28;20068;-83
2020/12/23 01:09:18;;;;;;;1.55;0.65;;;13.90;99.80;;;;;;5013813;28;20460;-85
2020/12/23 01:11:43;;;;;;;1.17;0.80;;;13.80;99.90;;;;;;5013490;28;20113;-85
2020/12/23 01:14:09;;;;;;;0.82;0.60;;;13.80;99.90;;;;;;5019319;28;20029;-85
2020/12/23 01:16:34;;;;;;;2.63;0.70;;;13.80;99.90;;;;;;5016353;28;20034;-81
2020/12/23 01:19:00;;;;;;;1.08;0.50;;;13.80;99.90;;;;;;4996500;28;20076;-84
2020/12/23 01:21:25;;;;;;;0.93;0.38;;;13.80;99.90;;;;;;5021282;28;20053;-83
2020/12/23 01:23:51;;;;;;;3.95;0.60;;;13.70;99.90;;;;;;5013669;28;20037;-82
2020/12/23 01:26:17;;;;;;;0.63;0.43;;;13.70;99.90;;;;;;5013318;28;20068;-82
2020/12/23 01:28:45;;;;;;;1.35;0.70;;;13.70;99.90;;;;;;5015859;28;20500;-84
2020/12/23 01:31:11;;;;;;;1.08;0.73;;;13.80;99.90;;;;;;5016664;28;20400;-82
2020/12/23 01:33:37;;;;;;;0.85;0.63;;;13.80;99.70;;;;;;5004579;28;20041;-82
2020/12/23 01:36:03;;;;;;;1.23;0.55;;;13.80;99.70;;;;;;5040848;28;20029;-82
2020/12/23 01:38:29;;;;;;;1.63;0.80;;;13.80;99.70;;;;;;5041891;28;20115;-82
2020/12/23 01:40:56;;;;;;;1.00;0.50;;;13.70;99.90;;;;;;5029887;28;20037;-83
2020/12/23 01:43:21;;;;;;;3.72;0.55;;;13.90;99.60;;;;;;5039984;28;20078;-82
2020/12/23 01:45:47;;;;;;;3.00;0.50;;;13.80;99.70;;;;;;5038931;28;20043;-83
2020/12/23 01:48:17;;;;;;;1.13;0.47;;;13.90;99.10;;;;;;5031684;28;20996;-82
2020/12/23 01:50:44;;;;;;;1.10;0.47;;;13.90;99.20;;;;;;5024943;28;20040;-83
2020/12/23 01:53:10;;;;;;;1.52;0.50;;;13.90;98.90;;;;;;5021420;28;20033;-82
2020/12/23 01:55:36;;;;;;;1.33;0.43;;;13.90;98.90;;;;;;5010551;28;20121;-81
2020/12/23 01:58:02;;;;;;;0.47;0.38;;;14.00;98.40;;;;;;5031561;28;20460;-82
2020/12/23 02:00:27;;;;;;;0.88;0.40;;;14.00;98.60;;;;;;5012345;28;20041;-82
2020/12/23 02:02:58;;;;;;;1.17;0.30;;;14.10;98.40;;;;;;5027087;28;20038;-83
2020/12/23 02:05:24;;;;;;;2.55;0.70;;;14.10;97.80;;;;;;5016892;28;20041;-82
2020/12/23 02:07:50;;;;;;;1.95;0.50;;;14.20;97.20;;;;;;5022395;28;20030;-82
2020/12/23 02:10:16;;;;;;;0.90;0.60;;;14.40;96.20;;;;;;5024478;28;20046;-81
2020/12/23 02:12:42;;;;;;;0.40;0.30;;;14.40;96.00;;;;;;5013870;28;20360;-82
2020/12/23 02:15:14;;;;;;;1.33;0.43;;;14.30;95.90;;;;;;5030173;28;20423;-82
2020/12/23 02:17:41;;;;;;;0.25;0.25;;;14.40;95.70;;;;;;5019040;28;20393;-83
2020/12/23 02:20:10;;;;;;;0.70;0.30;;;14.30;95.80;;;;;;5017459;28;20098;-85
2020/12/23 02:22:37;;;;;;;0.90;0.32;;;14.40;95.70;;;;;;5025796;28;20053;-85
2020/12/23 02:25:03;;;;;;;0.80;0.40;;;14.40;95.10;;;;;;5019931;28;20030;-84
2020/12/23 02:27:29;;;;;;;0.90;0.55;;;14.40;95.20;;;;;;5030645;28;20037;-84
2020/12/23 02:29:57;;;;;;;2.40;0.60;;;14.50;95.10;;;;;;5029998;28;20570;-82
2020/12/23 02:32:24;;;;;;;0.95;0.40;;;14.50;94.70;;;;;;5021175;28;20036;-82
2020/12/23 02:34:50;;;;;;;0.30;0.30;;;14.40;94.90;;;;;;5005391;28;20037;-82
2020/12/23 02:37:17;;;;;;;0.63;0.30;;;14.40;94.80;;;;;;5017712;28;20555;-82
2020/12/23 02:39:46;;;;;;;1.33;0.43;;;14.50;94.40;;;;;;5017260;28;20453;-83
2020/12/23 02:42:11;;;;;;;0.45;0.40;;;14.50;94.40;;;;;;5018737;28;20034;-82
2020/12/23 02:44:37;;;;;;;0.63;0.30;;;14.50;94.50;;;;;;5000717;28;20096;-83
2020/12/23 02:47:09;;;;;;;0.63;0.30;;;14.40;94.60;;;;;;5013720;28;20037;-82
2020/12/23 02:49:35;;;;;;;1.67;0.35;;;14.40;94.40;;;;;;5018276;28;20083;-83
2020/12/23 02:52:01;;;;;;;1.02;0.47;;;14.40;94.60;;;;;;4999606;28;20037;-82
2020/12/23 02:54:27;;;;;;;0.80;0.35;;;14.40;94.50;;;;;;5001734;28;20034;-83
2020/12/23 02:56:52;;;;;;;0.63;0.30;;;14.30;94.70;;;;;;5011953;28;20034;-83
2020/12/23 02:59:18;;;;;;;1.85;0.45;;;14.40;94.20;;;;;;5019769;28;20029;-83
2020/12/23 03:01:44;;;;;;;3.53;0.28;;;14.40;94.40;;;;;;4997842;28;20107;-82
2020/12/23 03:04:10;;;;;;;0.88;0.40;;;14.40;94.40;;;;;;5016172;28;20034;-82
2020/12/23 03:06:36;;;;;;;0.45;0.40;;;14.50;94.00;;;;;;5021995;28;20045;-83
2020/12/23 03:09:07;;;;;;;1.23;0.40;;;14.50;94.00;;;;;;5023680;28;20033;-83
2020/12/23 03:11:34;;;;;;;1.85;0.32;;;14.40;94.30;;;;;;5020109;28;20135;-83
2020/12/23 03:13:59;;;;;;;0.98;0.47;;;14.60;93.80;;;;;;5018524;28;20034;-83
2020/12/23 03:16:25;;;;;;;0.70;0.40;;;14.50;93.70;;;;;;5019385;28;20034;-82
2020/12/23 03:18:51;;;;;;;2.88;0.32;;;14.50;93.80;;;;;;5023920;28;20026;-82
2020/12/23 03:21:16;;;;;;;0.50;0.40;;;14.50;93.70;;;;;;5016371;28;20082;-81
2020/12/23 03:23:42;;;;;;;0.90;0.40;;;14.60;93.20;;;;;;5017879;28;20145;-83
2020/12/23 03:26:07;;;;;;;0.90;0.40;;;14.60;93.20;;;;;;5008064;28;20044;-83
2020/12/23 03:28:33;;;;;;;1.15;0.60;;;14.70;93.10;;;;;;5015870;28;20049;-83
2020/12/23 03:31:00;;;;;;;2.15;0.40;;;14.60;92.90;;;;;;5002043;28;20625;-83
2020/12/23 03:33:26;;;;;;;1.50;0.43;;;14.60;93.20;;;;;;5018079;28;20080;-84
2020/12/23 03:35:53;;;;;;;1.70;0.35;;;14.70;92.50;;;;;;5019115;28;20044;-84
2020/12/23 03:38:18;;;;;;;0.40;0.32;;;14.60;92.40;;;;;;5002263;28;20595;-83
2020/12/23 03:40:44;;;;;;;0.35;0.35;;;14.60;92.40;;;;;;5023868;28;20091;-85
2020/12/23 03:43:09;;;;;;;0.30;0.22;;;14.60;92.50;;;;;;5002560;28;20042;-85
2020/12/23 03:45:35;;;;;;;0.55;0.30;;;14.50;92.60;;;;;;5018210;28;20119;-83
2020/12/23 03:48:01;;;;;;;1.73;0.52;;;14.50;92.50;;;;;;5021127;28;20037;-83
2020/12/23 03:50:26;;;;;;;0.90;0.50;;;14.50;92.50;;;;;;5020510;28;20413;-84
2020/12/23 03:52:52;;;;;;;0.93;0.40;;;14.60;92.40;;;;;;5019596;28;20637;-84
2020/12/23 03:55:17;;;;;;;0.17;0.15;;;14.50;92.20;;;;;;5017897;28;20554;-84
2020/12/23 03:57:43;;;;;;;0.70;0.38;;;14.50;92.20;;;;;;5021229;28;20447;-85
2020/12/23 04:00:11;;;;;;;1.10;0.50;;;14.60;92.10;;;;;;5017027;28;20032;-84
2020/12/23 04:02:36;;;;;;;0.28;0.28;;;14.50;92.10;;;;;;5022130;28;20099;-84
2020/12/23 04:05:03;;;;;;;2.40;0.35;;;14.50;91.90;;;;;;4997770;28;20524;-84
2020/12/23 04:07:29;;;;;;;3.55;0.45;;;14.60;92.10;;;;;;5018658;28;20040;-84
2020/12/23 04:09:54;;;;;;;0.90;0.40;;;14.50;92.10;;;;;;5015194;28;20503;-85
2020/12/23 04:12:20;;;;;;;0.40;0.20;;;14.50;91.90;;;;;;5004156;28;20045;-84
2020/12/23 04:14:46;;;;;;;1.38;0.40;;;14.60;91.30;;;;;;5014292;28;20068;-84
2020/12/23 04:17:12;;;;;;;3.80;0.40;;;14.50;91.50;;;;;;5016255;28;20033;-84
2020/12/23 04:19:37;;;;;;;1.00;0.30;;;14.50;92.00;;;;;;5009545;28;20029;-83
2020/12/23 04:22:03;;;;;;;0.73;0.38;;;14.50;91.80;;;;;;5023997;28;20416;-84
2020/12/23 04:24:28;;;;;;;0.43;0.30;;;14.50;91.70;;;;;;5019183;28;20149;-84
2020/12/23 04:26:54;;;;;;;0.40;0.30;;;14.40;92.00;;;;;;5022015;28;20124;-83
2020/12/23 04:29:19;;;;;;;0.25;0.25;;;14.50;91.80;;;;;;5016824;28;20030;-83
2020/12/23 04:31:45;;;;;;;1.65;0.50;;;14.50;91.80;;;;;;5015810;28;20448;-83
2020/12/23 04:34:11;;;;;;;0.82;0.47;;;14.50;91.80;;;;;;5008737;28;20503;-83
2020/12/23 04:36:36;;;;;;;0.68;0.22;;;14.40;92.00;;;;;;5016143;28;20506;-84
2020/12/23 04:39:02;;;;;;;2.00;0.55;;;14.40;92.10;;;;;;4994401;28;20022;-83
2020/12/23 04:41:28;;;;;;;2.45;0.40;;;14.40;92.60;;;;;;5019945;28;20104;-82
2020/12/23 04:43:54;;;;;;;1.38;0.55;;;14.30;92.90;;;;;;5018654;28;20053;-83
2020/12/23 04:46:24;;;;;;;0.63;0.43;;;14.10;94.80;;;;;;5019009;28;20036;-83
2020/12/23 04:48:57;;;;;;;3.22;0.50;;;14.10;94.50;;;;;;5016769;28;20527;-83
2020/12/23 04:51:32;;;;;;;1.77;0.55;;;14.00;95.00;;;;;;4997823;28;20603;-82
2020/12/23 04:53:59;;;;;;;3.92;0.55;;;13.90;95.60;;;;;;5017015;28;20036;-82
2020/12/23 04:56:29;;;;;;;1.02;0.60;;;13.80;96.00;;;;;;4997234;28;20053;-80
2020/12/23 04:58:55;;;;;;;0.65;0.40;;;13.80;96.30;;;;;;5017183;28;20034;-80
2020/12/23 05:01:21;;;;;;;1.50;0.60;;;13.70;96.80;;;;;;5001214;28;20053;-81
2020/12/23 05:03:47;;;;;;;0.55;0.40;;;13.60;99.30;;;;;;5018741;28;20805;-81
2020/12/23 05:06:12;;;;;;;0.93;0.55;;;13.50;99.90;;;;;;5017923;28;20052;-83
2020/12/23 05:08:38;;;;;;;1.77;0.57;;;13.50;99.90;;;;;;5018432;28;20034;-83
2020/12/23 05:11:08;;;;;;;1.02;0.52;;;13.50;99.90;;;;;;5018233;28;20522;-82
2020/12/23 05:13:34;;;;;;;1.40;0.45;;;13.50;99.90;;;;;;5018672;28;20042;-83
2020/12/23 05:16:03;;;;;;;0.40;0.35;;;13.50;99.90;;;;;;5030123;28;20052;-83
2020/12/23 05:18:31;;;;;;;1.48;0.80;;;13.40;99.90;;;;;;5031241;28;20022;-85
2020/12/23 05:20:57;;;;;;;3.92;0.73;;;13.50;99.90;;;;;;5025647;28;20049;-84
2020/12/23 05:23:23;;;;;;;1.13;0.52;;;13.60;98.70;;;;;;5035364;28;20021;-84
2020/12/23 05:25:49;;;;;;;1.95;0.50;;;13.60;99.00;;;;;;5039164;28;20037;-83
2020/12/23 05:28:16;;;;;;;0.98;0.45;;;13.70;97.90;;;;;;5029415;28;20061;-84
2020/12/23 05:30:43;;;;;;;0.98;0.40;;;13.70;97.80;;;;;;5021663;28;20040;-85
2020/12/23 05:33:11;;;;;;;2.33;0.50;;;13.80;97.40;;;;;;5022096;28;20455;-86
2020/12/23 05:35:37;;;;;;;1.35;0.50;;;13.80;97.40;;;;;;5021206;28;20034;-84
2020/12/23 05:38:04;;;;;;;1.58;0.40;;;13.70;97.80;;;;;;5021578;28;20033;-85
2020/12/23 05:40:30;;;;;;;2.10;0.47;;;13.90;96.50;;;;;;5027551;28;20025;-83
2020/12/23 05:42:57;;;;;;;1.30;0.60;;;13.80;97.00;;;;;;5002639;28;20037;-82
2020/12/23 05:45:25;;;;;;;1.38;0.50;;;13.70;96.50;;;;;;5019776;28;20061;-84
2020/12/23 05:47:54;;;;;;;1.42;0.43;;;13.70;96.70;;;;;;5019256;28;20078;-82
2020/12/23 05:50:21;;;;;;;0.95;0.70;;;13.60;97.60;;;;;;5017910;28;20064;-84
2020/12/23 05:52:47;;;;;;;2.83;0.50;;;13.60;97.40;;;;;;5019883;28;20535;-84
2020/12/23 05:55:16;;;;;;;1.17;0.65;;;13.60;98.10;;;;;;5018531;28;20147;-84
2020/12/23 05:57:43;;;;;;;1.00;0.52;;;13.70;96.70;;;;;;4999172;28;20515;-83
2020/12/23 06:00:10;;;;;;;5.88;0.55;;;13.80;96.70;;;;;;5008081;28;20037;-84
2020/12/23 06:03:13;;;;;;;0.77;0.40;;;13.70;97.00;;;;;;4999548;28;21141;-85
2020/12/23 06:05:43;;;;;;;2.25;0.47;;;13.60;97.20;;;;;;5016408;28;20493;-86
2020/12/23 06:08:10;;;;;;;1.70;0.43;;;13.60;97.30;;;;;;5009940;28;20089;-84
2020/12/23 06:10:39;;;;;;;1.17;0.40;;;13.70;97.20;;;;;;5032622;28;20038;-84
2020/12/23 06:13:24;;;;;;;1.00;0.45;;;13.70;96.40;;;;;;5003665;28;20603;-85
2020/12/23 06:15:57;;;;;;;0.43;0.30;;;13.70;96.80;;;;;;5019391;28;20034;-83
2020/12/23 06:18:25;;;;;;;1.50;0.60;;;13.70;96.20;;;;;;5025797;28;20081;-86
2020/12/23 06:20:51;;;;;;;1.48;0.63;;;13.70;96.00;;;;;;5023111;28;20045;-84
2020/12/23 06:23:27;;;;;;;2.88;0.80;;;13.70;96.30;;;;;;5015173;28;20037;-86
2020/12/23 06:25:53;;;;;;;1.75;0.60;;;13.70;96.00;;;;;;5015289;28;20057;-83
2020/12/23 06:28:22;;;;;;;3.85;0.98;;;13.70;96.00;;;;;;5018223;28;20087;-83
2020/12/23 06:30:51;;;;;;;3.33;0.68;;;13.70;96.90;;;;;;5010859;28;20032;-84
2020/12/23 06:33:18;;;;;;;0.90;0.70;;;13.60;96.80;;;;;;5018267;28;20053;-83
2020/12/23 06:35:43;;;;;;;0.50;0.50;;;13.60;96.80;;;;;;5022260;28;20036;-82
2020/12/23 06:38:19;;;;;;;0.60;0.50;;;13.60;97.10;;;;;;5019571;28;20030;-83
2020/12/23 06:40:57;;;;;;;3.13;0.70;;;13.60;96.80;;;;;;5026549;28;20033;-83
2020/12/23 06:43:55;;;;;;;1.27;0.65;;;13.60;96.60;;;;;;5027718;28;20025;-83
2020/12/23 06:46:21;;;;;;;1.55;0.65;;;13.50;97.10;;;;;;5022996;28;20053;-84
2020/12/23 06:48:47;;;;;;;1.05;0.68;;;13.50;97.50;;;;;;5027095;28;20029;-83
2020/12/23 06:51:39;;;;;;;2.47;0.68;;;13.40;97.30;;;;;;5022226;28;20042;-84
2020/12/23 06:54:05;;;;;;;1.30;0.70;;;13.50;96.80;;;;;;5021480;28;20022;-83
2020/12/23 06:56:46;;;;;;;1.27;0.50;;;13.50;97.10;;;;;;5019539;28;20025;-84
2020/12/23 06:59:45;;;;;;;3.88;0.50;;;13.40;97.30;;;;;;5027190;28;20030;-85
2020/12/23 07:02:11;;;;;;;3.28;0.50;;;13.40;97.40;;;;;;5023698;28;20231;-85
2020/12/23 07:04:47;;;;;;;1.23;0.60;;;13.40;97.10;;;;;;5022647;28;20055;-85
2020/12/23 07:07:51;;;;;;;1.67;0.60;;;13.40;97.20;;;;;;5023327;28;20040;-82
2020/12/23 07:10:28;;;;;;;1.92;0.80;;;13.50;96.60;;;;;;4975055;28;20075;-84
2020/12/23 07:12:54;;;;;;;1.42;0.95;;;13.50;96.90;;;;;;5020336;28;20134;-83
2020/12/23 07:15:25;;;;;;;3.00;0.50;;;13.50;96.60;;;;;;5015252;28;20038;-83
2020/12/23 07:18:12;;;;;;;0.90;0.52;;;13.50;96.30;;;;;;5005881;28;20037;-83
2020/12/23 07:20:46;;;;;;;1.55;0.50;;;13.60;96.00;;;;;;5024394;28;20061;-85
2020/12/23 07:23:14;;;;;;;0.98;0.40;;;13.50;96.30;;;;;;5025512;28;20100;-83
2020/12/23 07:25:47;;;;;;;2.50;0.60;;;13.50;96.40;;;;;;5025371;28;20514;-83
2020/12/23 07:28:19;;;;;;;2.13;1.05;;;13.50;95.90;;;;;;5028352;28;20036;-83
2020/12/23 07:30:45;;;;;;;2.20;1.02;;;13.50;96.10;;;;;;5021608;28;20064;-83
2020/12/23 07:33:16;;;;;;;1.35;0.80;;;13.40;96.10;;;;;;5016592;28;20037;-83
2020/12/23 07:35:47;;;;;;;3.00;0.60;;;13.50;96.00;;;;;;5029609;28;20049;-83
2020/12/23 07:38:14;;;;;;;1.10;0.70;;;13.50;96.20;;;;;;5028247;28;20086;-83
2020/12/23 07:40:41;;;;;;;0.95;0.35;;;13.50;95.30;;;;;;5036591;28;20037;-83
2020/12/23 07:43:07;;;;;;;4.68;1.80;;;13.60;95.20;;;;;;5033982;28;20633;-83
2020/12/23 07:45:33;;;;;;;1.27;0.70;;;13.60;94.60;;;;;;5019754;28;20048;-84
2020/12/23 07:48:05;;;;;;;1.30;0.70;;;13.60;94.40;;;;;;5021405;28;20041;-86
2020/12/23 07:50:36;;;;;;;1.00;0.57;;;13.60;94.30;;;;;;5000829;28;20026;-83
2020/12/23 07:53:18;;;;;;;0.90;0.50;;;13.70;94.10;;;;;;5018457;28;20038;-83
2020/12/23 07:56:02;;;;;;;1.63;0.70;;;13.70;93.80;;;;;;5013859;28;20492;-83
2020/12/23 07:58:31;;;;;;;0.75;0.50;;;13.70;93.40;;;;;;5017174;28;20045;-83
2020/12/23 08:00:56;;;;;;;1.65;0.63;;;13.80;93.20;;;;;;5021644;28;20504;-82
2020/12/23 08:03:26;;;;;;;1.55;0.88;;;13.80;93.60;;;;;;5010519;28;20038;-84
2020/12/23 08:06:09;;;;;;;2.38;0.95;;;13.80;93.20;;;;;;5019262;28;20105;-82
2020/12/23 08:08:36;;;;;;;1.45;0.80;;;13.80;93.00;;;;;;5018484;28;20025;-81
2020/12/23 08:11:15;;;;;;;0.85;0.55;;;13.80;93.00;;;;;;5026607;28;20273;-82
2020/12/23 08:13:42;;;;;;;1.58;0.85;;;13.80;92.70;;;;;;5012207;28;20037;-82
2020/12/23 08:16:15;;;;;;;1.70;1.00;;;13.80;92.40;;;;;;5029270;28;20034;-81
2020/12/23 08:18:42;;;;;;;1.90;0.63;;;13.90;92.30;;;;;;5023331;28;20044;-82
2020/12/23 08:21:12;;;;;;;3.75;1.05;;;13.90;92.00;;;;;;5020212;28;20115;-83
2020/12/23 08:23:39;;;;;;;1.08;0.60;;;14.00;91.90;;;;;;5004491;28;20048;-83
2020/12/23 08:26:05;;;;;;;1.58;0.70;;;14.00;91.60;;;;;;5023533;28;20034;-83
2020/12/23 08:28:36;;;;;;;1.17;0.57;;;13.90;91.90;;;;;;5028808;28;20030;-82
2020/12/23 08:31:04;;;;;;;3.92;1.10;;;14.00;91.60;;;;;;5030394;28;20042;-83
2020/12/23 08:33:30;;;;;;;2.30;0.57;;;13.90;91.90;;;;;;5026013;28;20553;-82
2020/12/23 08:36:02;;;;;;;1.27;0.77;;;14.00;91.50;;;;;;5017703;28;20117;-82
2020/12/23 08:38:27;;;;;;;1.25;0.70;;;14.10;91.10;;;;;;5003050;28;20034;-82
2020/12/23 08:40:56;;;;;;;1.65;0.70;;;14.10;91.20;;;;;;5002932;28;20034;-82
2020/12/23 08:43:31;;;;;;;1.65;0.80;;;14.30;90.40;;;;;;5019750;28;20048;-83
2020/12/23 08:45:59;;;;;;;3.83;0.90;;;14.30;90.60;;;;;;5018784;28;20657;-83
2020/12/23 08:48:29;;;;;;;1.88;0.82;;;14.30;91.00;;;;;;5019526;28;20038;-82
2020/12/23 08:51:00;;;;;;;1.33;0.60;;;14.20;90.70;;;;;;5019648;28;20052;-83
2020/12/23 08:53:38;;;;;;;1.48;0.85;;;14.20;90.70;;;;;;5030250;28;20030;-82
2020/12/23 08:56:27;;;;;;;1.00;0.57;;;14.30;90.30;;;;;;5041602;28;20021;-85
2020/12/23 08:59:04;;;;;;;7.78;1.00;;;14.30;90.20;;;;;;5021245;28;20665;-84
2020/12/23 09:01:31;;;;;;;1.88;0.90;;;14.30;90.30;;;;;;4995596;28;20050;-83
2020/12/23 09:04:10;;;;;;;1.20;0.70;;;14.40;90.60;;;;;;5014078;28;20120;-83
2020/12/23 09:06:38;;;;;;;1.80;0.85;;;14.30;90.50;;;;;;5009864;28;20042;-83
2020/12/23 09:09:20;;;;;;;2.35;1.23;;;14.40;90.50;;;;;;4988640;28;20034;-83
2020/12/23 09:11:53;;;;;;;2.83;1.15;;;14.40;90.60;;;;;;5004511;28;20033;-83
2020/12/23 09:14:23;;;;;;;4.83;1.00;;;14.40;91.00;;;;;;5004877;28;20400;-82
2020/12/23 09:17:00;;;;;;;2.70;0.73;;;14.40;90.60;;;;;;5020755;28;20041;-82
2020/12/23 09:19:58;;;;;;;1.02;0.57;;;14.50;90.00;;;;;;5022326;28;20168;-85
2020/12/23 09:22:25;;;;;;;3.05;1.73;;;14.50;90.50;;;;;;5020172;28;20044;-83
2020/12/23 09:24:51;;;;;;;2.50;1.20;;;14.40;90.20;;;;;;5016092;28;20049;-83
2020/12/23 09:27:19;;;;;;;3.22;1.00;;;14.40;90.70;;;;;;5022337;28;20083;-84
2020/12/23 09:29:44;;;;;;;1.92;0.88;;;14.50;90.00;;;;;;5025138;28;20400;-84
2020/12/23 09:32:10;;;;;;;2.15;1.00;;;14.50;90.40;;;;;;5019885;28;20025;-84
2020/12/23 09:34:35;;;;;;;4.65;1.02;;;14.50;90.20;;;;;;5021649;28;20042;-83
2020/12/23 09:37:01;;;;;;;1.90;0.93;;;14.40;90.40;;;;;;5001087;28;20117;-83
2020/12/23 09:39:26;;;;;;;1.45;0.75;;;14.50;90.10;;;;;;5019937;28;20034;-83
2020/12/23 09:42:04;;;;;;;5.88;0.98;;;14.50;89.90;;;;;;5020260;28;20041;-83
2020/12/23 09:44:29;;;;;;;1.90;0.82;;;14.50;90.20;;;;;;5018144;28;20461;-83
2020/12/23 09:46:55;;;;;;;1.95;0.57;;;14.50;90.20;;;;;;5015822;28;20065;-83
2020/12/23 09:49:21;;;;;;;1.35;0.80;;;14.60;90.30;;;;;;5018977;28;20064;-85
2020/12/23 09:51:49;;;;;;;4.30;0.95;;;14.60;90.40;;;;;;5019277;28;20625;-82
2020/12/23 09:54:15;;;;;;;6.00;0.80;;;14.60;90.50;;;;;;5017096;28;20527;-84
2020/12/23 09:57:02;;;;;;;0.82;0.65;;;14.60;90.50;;;;;;5023401;28;20038;-83
2020/12/23 09:59:28;;;;;;;2.47;1.63;;;14.60;90.10;;;;;;5018476;28;20034;-82
2020/12/23 10:01:53;;;;;;;2.22;1.10;;;14.60;90.00;;;;;;5016435;28;20497;-82
2020/12/23 10:04:19;;;;;;;1.83;1.08;;;14.60;89.90;;;;;;5002395;28;20041;-82
2020/12/23 10:06:44;;;;;;;1.83;0.93;;;14.70;90.10;;;;;;5022533;28;20033;-83
2020/12/23 10:09:10;;;;;;;1.48;0.80;;;14.70;89.50;;;;;;5028491;28;20038;-84
2020/12/23 10:11:35;;;;;;;1.30;0.70;;;14.70;88.50;;;;;;5025116;28;20136;-83
2020/12/23 10:14:01;;;;;;;1.63;1.00;;;14.70;88.40;;;;;;5023174;28;20029;-83
2020/12/23 10:16:31;;;;;;;3.50;0.95;;;14.70;90.20;;;;;;5022543;28;20038;-83
2020/12/23 10:18:57;;;;;;;1.38;0.80;;;14.70;88.60;;;;;;5021969;28;20091;-84
2020/12/23 10:21:23;;;;;;;2.05;1.00;;;14.80;88.40;;;;;;5024687;28;20029;-83
2020/12/23 10:23:48;;;;;;;2.00;1.10;;;14.80;88.60;;;;;;5017160;28;20045;-84
2020/12/23 10:26:14;;;;;;;1.23;0.90;;;14.90;88.40;;;;;;5019931;28;20515;-83
2020/12/23 10:28:40;;;;;;;2.20;1.10;;;14.90;87.90;;;;;;5016162;28;20519;-84
2020/12/23 10:31:06;;;;;;;1.05;0.68;;;15.10;86.60;;;;;;5018024;28;20038;-84
2020/12/23 10:33:34;;;;;;;2.15;0.77;;;15.10;87.20;;;;;;5026379;28;20670;-84
2020/12/23 10:36:00;;;;;;;4.63;1.10;;;15.20;86.20;;;;;;5000766;28;20117;-84
2020/12/23 10:38:28;;;;;;;3.30;1.50;;;15.30;86.90;;;;;;5022832;28;20034;-84
2020/12/23 10:40:57;;;;;;;2.60;1.38;;;15.30;87.10;;;;;;5022464;28;20087;-84
2020/12/23 10:43:22;;;;;;;3.38;1.23;;;15.40;87.40;;;;;;5018412;28;20036;-83
2020/12/23 10:45:49;;;;;;;1.92;0.90;;;15.40;86.00;;;;;;5021935;28;20592;-84
2020/12/23 10:48:15;;;;;;;1.45;0.82;;;15.50;84.30;;;;;;5005705;28;20117;-85
2020/12/23 10:50:40;;;;;;;2.05;1.20;;;15.50;85.30;;;;;;5025627;28;20034;-84
2020/12/23 10:53:06;;;;;;;1.77;0.98;;;15.50;84.90;;;;;;5023770;28;20544;-84
2020/12/23 10:55:31;;;;;;;4.15;1.02;;;15.50;84.40;;;;;;5035587;28;20328;-83
2020/12/23 10:57:57;;;;;;;3.67;1.30;;;15.50;83.90;;;;;;5016374;28;20041;-84
2020/12/23 11:00:22;;;;;;;1.40;0.90;;;15.50;83.60;;;;;;5028016;28;20500;-84
2020/12/23 11:02:48;;;;;;;1.65;0.80;;;15.50;83.30;;;;;;5034331;28;20037;-85
2020/12/23 11:05:14;;;;;;;2.10;0.98;;;15.60;83.50;;;;;;5031746;28;20034;-84
2020/12/23 11:07:40;;;;;;;2.08;0.80;;;15.60;84.50;;;;;;5020822;28;20528;-84
2020/12/23 11:10:05;;;;;;;3.38;1.25;;;15.60;85.60;;;;;;5019378;28;20037;-85
2020/12/23 11:12:31;;;;;;;1.98;1.05;;;15.60;84.60;;;;;;5016246;28;20037;-84
2020/12/23 11:14:56;;;;;;;4.75;1.05;;;15.60;84.90;;;;;;5019211;28;20041;-83
2020/12/23 11:17:22;;;;;;;1.70;0.82;;;15.50;84.40;;;;;;5019405;28;20517;-84
2020/12/23 11:19:49;;;;;;;1.60;0.70;;;15.50;84.10;;;;;;5020977;28;20093;-84
2020/12/23 11:22:15;;;;;;;1.23;0.65;;;15.40;85.10;;;;;;5008123;28;20061;-84
2020/12/23 11:24:40;;;;;;;1.38;0.70;;;15.40;85.90;;;;;;5025011;28;20628;-83
2020/12/23 11:27:06;;;;;;;1.83;0.82;;;15.30;87.60;;;;;;5026024;28;20025;-84
2020/12/23 11:29:33;;;;;;;3.95;1.30;;;15.30;86.90;;;;;;5020909;28;20038;-84
2020/12/23 11:31:58;;;;;;;1.88;0.75;;;15.20;87.80;;;;;;5017302;28;20038;-84
2020/12/23 11:34:24;;;;;;;2.35;0.80;;;15.10;89.70;;;;;;5016403;28;20075;-83
2020/12/23 11:36:49;;;;;;;2.75;0.70;;;15.00;90.10;;;;;;5002056;28;20063;-84
2020/12/23 11:39:15;;;;;;;1.50;0.70;;;15.10;88.00;;;;;;5002315;28;20033;-84
2020/12/23 11:41:40;;;;;;;5.28;0.52;;;15.10;88.10;;;;;;5020099;28;20038;-85
2020/12/23 11:44:06;;;;;;;2.05;0.80;;;15.10;88.60;;;;;;5019648;28;20901;-82
2020/12/23 11:46:31;;;;;;;1.80;0.85;;;15.00;89.00;;;;;;5000791;28;20055;-82
2020/12/23 11:48:57;;;;;;;3.95;0.75;;;14.90;90.50;;;;;;5020121;28;20481;-83
2020/12/23 11:51:24;;;;;;;1.15;0.70;;;14.80;92.40;;;;;;5019482;28;20113;-83
2020/12/23 11:53:51;;;;;;;3.83;2.05;;;14.80;90.90;;;;;;4997747;28;20068;-83
2020/12/23 11:56:17;;;;;;;2.50;0.98;;;14.80;92.10;;;;;;5006117;28;20037;-81
2020/12/23 11:58:42;;;;;;;3.15;1.02;;;14.70;94.10;;;;;;5022011;28;20557;-81
2020/12/23 12:01:08;;;;;;;0.98;0.70;;;14.70;92.30;;;;;;5017271;28;20038;-82
2020/12/23 12:03:33;;;;;;;2.13;1.05;;;14.60;92.50;;;;;;5017957;28;20030;-82
2020/12/23 12:05:59;;;;;;;0.95;0.80;;;14.50;95.00;;;;;;4999398;28;20129;-82
2020/12/23 12:08:24;;;;;;;2.03;0.82;;;14.50;97.60;;;;;;5038341;28;20077;-85
2020/12/23 12:10:50;;;;;;;4.85;1.17;;;14.40;98.20;;;;;;5035143;28;20046;-83
2020/12/23 12:13:15;;;;;;;6.88;0.98;;;14.40;97.30;;;;;;5022359;28;20037;-83
2020/12/23 12:15:41;;;;;;;2.92;1.17;;;14.30;98.00;;;;;;5026296;28;20018;-82
2020/12/23 12:18:07;;;;;;;2.65;0.70;;;14.40;97.20;;;;;;5028241;28;20097;-82
2020/12/23 12:20:32;;;;;;;2.38;1.05;;;14.40;97.30;;;;;;5027134;28;20069;-83
2020/12/23 12:22:58;;;;;;;2.22;0.93;;;14.40;96.60;;;;;;5021604;28;20060;-83
2020/12/23 12:25:23;;;;;;;0.95;0.70;;;14.40;96.80;;;;;;5021831;28;20034;-85
2020/12/23 12:27:49;;;;;;;5.95;1.00;;;14.60;94.20;;;;;;5019972;28;20132;-82
2020/12/23 12:30:14;;;;;;;1.77;0.80;;;14.60;94.50;;;;;;5020980;28;20030;-81
2020/12/23 12:32:41;;;;;;;1.55;0.85;;;14.70;94.70;;;;;;5027095;28;20038;-84
2020/12/23 12:35:07;;;;;;;1.92;1.15;;;14.70;94.90;;;;;;5021614;28;20037;-83
2020/12/23 12:37:32;;;;;;;1.42;0.75;;;14.70;95.00;;;;;;5037984;28;20038;-84
2020/12/23 12:39:58;;;;;;;3.03;1.10;;;14.80;92.50;;;;;;5029878;28;20503;-83
2020/12/23 12:42:23;;;;;;;9.48;1.00;;;14.80;93.20;;;;;;5034709;28;20272;-86
2020/12/23 12:44:49;;;;;;;2.35;1.20;;;14.80;92.80;;;;;;5038270;28;20056;-83
2020/12/23 12:47:15;;;;;;;3.40;1.20;;;14.80;93.50;;;;;;5031265;28;20055;-82
2020/12/23 12:49:40;;;;;;;3.15;1.10;;;14.80;94.40;;;;;;5028914;28;20045;-82
2020/12/23 12:52:06;;;;;;;2.33;1.13;;;14.80;93.50;;;;;;5032702;28;20064;-82